Time;durP1;ratioP1;P1;durP2;ratioP2;P2;SDS_P1;SDS_P2;PMS_P1;PMS_P2;Temp;Humidity;BMP_temperature;BMP_pressure;BME280_temperature;BME280_humidity;BME280_pressure;Samples;Min_cycle;Max_cycle;Signal;HPM_P1;HPM_P2
2021/08/04 00:01:13;;;;;;;6.25;2.30;;;19.70;98.10;;;;;;5012227;28;20033;-64
2021/08/04 00:04:18;;;;;;;6.05;1.73;;;19.70;98.20;;;;;;5013158;28;20037;-64
2021/08/04 00:07:23;;;;;;;4.55;1.88;;;19.70;98.10;;;;;;5012664;28;20049;-65
2021/08/04 00:10:27;;;;;;;5.57;2.00;;;19.80;97.80;;;;;;5012527;28;20125;-65
2021/08/04 00:13:31;;;;;;;11.82;2.22;;;19.90;97.60;;;;;;5012785;28;20049;-65
2021/08/04 00:16:35;;;;;;;5.70;2.10;;;20.00;97.40;;;;;;4993118;28;20041;-64
2021/08/04 00:19:40;;;;;;;7.20;1.92;;;20.00;97.30;;;;;;5005904;28;20053;-65
2021/08/04 00:22:44;;;;;;;1.50;1.05;;;20.10;97.20;;;;;;5012163;28;20045;-64
2021/08/04 00:25:48;;;;;;;7.00;2.65;;;20.20;97.20;;;;;;4992853;28;20389;-64
2021/08/04 00:29:06;;;;;;;4.72;2.30;;;20.20;97.20;;;;;;5009142;28;20041;-64
2021/08/04 00:32:11;;;;;;;5.93;2.35;;;20.20;97.30;;;;;;5011010;28;20045;-64
2021/08/04 00:35:16;;;;;;;4.97;2.15;;;20.20;97.50;;;;;;5011874;28;20348;-65
2021/08/04 00:38:22;;;;;;;5.90;1.90;;;20.20;97.50;;;;;;5010853;28;20044;-65
2021/08/04 00:41:26;;;;;;;5.03;1.88;;;20.30;97.50;;;;;;5010585;28;20412;-65
2021/08/04 00:44:31;;;;;;;2.60;1.50;;;20.40;97.40;;;;;;5012043;28;20040;-65
2021/08/04 00:47:35;;;;;;;5.72;1.40;;;20.40;97.30;;;;;;5011305;28;20048;-64
2021/08/04 00:50:42;;;;;;;4.78;1.88;;;20.50;97.50;;;;;;5011148;28;20053;-64
2021/08/04 00:53:46;;;;;;;6.40;2.03;;;20.40;97.70;;;;;;5010988;28;20496;-64
2021/08/04 00:56:51;;;;;;;6.55;1.95;;;20.30;97.90;;;;;;5011491;28;20053;-63
2021/08/04 00:59:56;;;;;;;4.00;1.23;;;20.40;98.00;;;;;;5010619;28;20048;-64
2021/08/04 01:03:03;;;;;;;4.10;1.90;;;20.30;97.90;;;;;;5011307;28;20057;-64
2021/08/04 01:06:18;;;;;;;4.32;1.80;;;20.10;98.00;;;;;;5002388;28;20504;-64
2021/08/04 01:09:25;;;;;;;3.75;1.70;;;19.70;99.00;;;;;;5009067;28;20041;-64
2021/08/04 01:13:16;;;;;;;3.80;1.80;;;19.50;99.80;;;;;;5011077;28;20049;-65
2021/08/04 01:16:27;;;;;;;6.78;2.10;;;19.20;99.90;;;;;;4998977;28;20049;-64
2021/08/04 01:19:55;;;;;;;3.33;1.80;;;19.00;99.90;;;;;;5009628;28;20357;-64
2021/08/04 01:23:17;;;;;;;7.00;2.00;;;18.90;99.90;;;;;;5009566;28;20045;-64
2021/08/04 01:26:24;;;;;;;;;;;18.70;99.90;;;;;;5010769;28;20063;-64
2021/08/04 01:29:29;;;;;;;4.85;2.25;;;18.70;99.90;;;;;;5021286;28;19917;-64
2021/08/04 01:32:34;;;;;;;5.78;2.40;;;18.70;99.90;;;;;;5010521;28;20044;-65
2021/08/04 01:35:40;;;;;;;3.13;2.10;;;18.70;99.90;;;;;;5010408;28;20052;-64
2021/08/04 01:38:46;;;;;;;4.30;1.80;;;18.80;99.90;;;;;;5009648;28;20079;-65
2021/08/04 01:41:52;;;;;;;3.95;1.73;;;18.80;99.90;;;;;;4991356;28;20053;-64
2021/08/04 01:44:58;;;;;;;4.60;2.20;;;18.80;99.90;;;;;;5004681;28;20044;-65
2021/08/04 01:48:02;;;;;;;6.78;2.30;;;18.80;99.90;;;;;;5009666;28;20045;-65
2021/08/04 01:51:10;;;;;;;5.38;2.22;;;18.70;99.90;;;;;;5009954;28;20049;-64
2021/08/04 01:54:16;;;;;;;3.35;2.08;;;18.70;99.90;;;;;;5010092;28;20041;-64
2021/08/04 01:57:20;;;;;;;4.18;1.90;;;18.70;99.90;;;;;;5008968;28;20049;-64
2021/08/04 02:00:25;;;;;;;5.32;2.10;;;18.70;99.90;;;;;;4990196;28;20503;-64
2021/08/04 02:03:29;;;;;;;5.93;2.10;;;18.70;99.90;;;;;;5007466;28;20465;-64
2021/08/04 02:06:54;;;;;;;5.63;1.80;;;18.70;99.90;;;;;;4998214;28;20036;-63
2021/08/04 02:10:02;;;;;;;4.32;2.20;;;18.70;99.90;;;;;;5008772;28;20069;-64
2021/08/04 02:13:37;;;;;;;3.45;2.00;;;18.70;99.90;;;;;;5009427;28;20045;-65
2021/08/04 02:16:56;;;;;;;4.35;1.85;;;18.60;99.90;;;;;;5008587;28;20053;-64
2021/08/04 02:20:22;;;;;;;5.93;2.28;;;18.60;99.90;;;;;;5008964;28;20049;-63
2021/08/04 02:23:31;;;;;;;7.18;2.25;;;18.60;99.90;;;;;;5009333;28;20037;-63
2021/08/04 02:26:38;;;;;;;4.70;2.10;;;18.50;99.90;;;;;;5001547;28;20308;-63
2021/08/04 02:29:43;;;;;;;5.03;2.17;;;18.50;99.90;;;;;;5003806;28;20049;-64
2021/08/04 02:32:48;;;;;;;8.45;2.58;;;18.50;99.90;;;;;;5009139;28;20052;-64
2021/08/04 02:35:52;;;;;;;5.13;1.98;;;18.50;99.90;;;;;;5001983;28;20045;-63
2021/08/04 02:39:01;;;;;;;3.95;2.00;;;18.40;99.90;;;;;;5008170;28;20049;-64
2021/08/04 02:42:06;;;;;;;4.63;1.80;;;18.60;99.90;;;;;;5009458;28;20053;-64
2021/08/04 02:45:11;;;;;;;3.17;2.03;;;18.60;99.90;;;;;;5009467;28;20121;-64
2021/08/04 02:48:16;;;;;;;2.88;1.80;;;18.70;99.90;;;;;;5008961;28;20037;-63
2021/08/04 02:51:25;;;;;;;5.55;1.92;;;18.70;99.90;;;;;;5008237;28;20404;-64
2021/08/04 02:54:29;;;;;;;6.28;2.20;;;18.60;99.90;;;;;;5010103;28;20049;-64
2021/08/04 02:57:33;;;;;;;5.63;2.50;;;18.70;99.90;;;;;;5013501;28;20130;-64
2021/08/04 03:00:37;;;;;;;5.18;2.30;;;18.50;99.90;;;;;;5012495;28;20057;-63
2021/08/04 03:03:41;;;;;;;3.83;2.20;;;18.50;99.90;;;;;;5014209;28;20044;-63
2021/08/04 03:06:45;;;;;;;7.07;1.90;;;18.40;99.90;;;;;;5013977;28;20049;-63
2021/08/04 03:09:49;;;;;;;5.03;2.28;;;18.20;99.90;;;;;;5013291;28;20057;-64
2021/08/04 03:12:53;;;;;;;4.70;2.10;;;18.10;99.90;;;;;;5011195;28;20045;-64
2021/08/04 03:15:57;;;;;;;5.78;2.50;;;17.90;99.90;;;;;;5012754;28;20400;-64
2021/08/04 03:19:01;;;;;;;6.32;2.72;;;17.80;99.90;;;;;;5011647;28;20057;-63
2021/08/04 03:22:05;;;;;;;3.47;2.20;;;17.70;99.90;;;;;;5011991;28;20431;-64
2021/08/04 03:25:10;;;;;;;5.88;2.45;;;17.70;99.90;;;;;;5011498;28;20491;-64
2021/08/04 03:28:14;;;;;;;5.68;2.45;;;17.70;99.90;;;;;;5012201;28;20052;-64
2021/08/04 03:31:18;;;;;;;3.08;2.10;;;17.80;99.90;;;;;;5012033;28;20499;-63
2021/08/04 03:34:22;;;;;;;11.25;3.55;;;17.80;99.90;;;;;;5013283;28;20396;-64
2021/08/04 03:37:27;;;;;;;7.40;2.40;;;17.80;99.90;;;;;;5012748;28;20595;-64
2021/08/04 03:40:31;;;;;;;3.83;2.42;;;17.80;99.90;;;;;;5008504;28;20053;-64
2021/08/04 03:43:35;;;;;;;4.15;2.20;;;17.80;99.90;;;;;;5004984;28;20037;-64
2021/08/04 03:46:46;;;;;;;5.03;2.30;;;17.90;99.90;;;;;;5005001;28;20046;-64
2021/08/04 03:49:50;;;;;;;3.97;2.17;;;17.90;99.90;;;;;;5002332;28;20057;-63
2021/08/04 03:52:55;;;;;;;7.70;2.40;;;17.80;99.90;;;;;;5013454;28;20045;-64
2021/08/04 03:55:59;;;;;;;5.25;2.30;;;17.80;99.90;;;;;;5011356;28;20049;-64
2021/08/04 03:59:03;;;;;;;6.15;2.20;;;17.80;99.90;;;;;;5004246;28;20105;-64
2021/08/04 04:02:07;;;;;;;4.32;2.33;;;17.80;99.90;;;;;;5011645;28;20053;-64
2021/08/04 04:05:11;;;;;;;6.10;2.15;;;17.80;99.90;;;;;;5002585;28;20049;-64
2021/08/04 04:08:16;;;;;;;4.80;2.25;;;17.80;99.90;;;;;;5010659;28;20049;-64
2021/08/04 04:11:20;;;;;;;4.15;2.28;;;17.80;99.90;;;;;;5012221;28;20056;-63
2021/08/04 04:14:24;;;;;;;6.50;2.75;;;17.70;99.90;;;;;;5005619;28;20237;-64
2021/08/04 04:17:29;;;;;;;4.63;2.15;;;17.60;99.90;;;;;;5008516;28;20049;-63
2021/08/04 04:20:33;;;;;;;5.60;2.08;;;17.50;99.90;;;;;;4995900;28;20048;-64
2021/08/04 04:23:37;;;;;;;4.45;2.22;;;17.50;99.90;;;;;;5012107;28;20400;-64
2021/08/04 04:26:41;;;;;;;3.85;2.40;;;17.60;99.90;;;;;;5011420;28;20033;-64
2021/08/04 04:29:45;;;;;;;3.75;2.50;;;17.60;99.90;;;;;;5011192;28;20053;-64
2021/08/04 04:32:49;;;;;;;8.75;2.40;;;17.50;99.90;;;;;;5006525;28;20385;-64
2021/08/04 04:35:55;;;;;;;17.23;3.30;;;17.40;99.90;;;;;;5008053;28;20503;-64
2021/08/04 04:38:59;;;;;;;14.68;2.75;;;17.40;99.90;;;;;;5009557;28;20287;-65
2021/08/04 04:42:05;;;;;;;9.45;2.72;;;17.40;99.90;;;;;;5011693;28;20045;-64
2021/08/04 04:45:09;;;;;;;4.00;2.22;;;17.40;99.90;;;;;;5009725;28;20037;-65
2021/08/04 04:48:13;;;;;;;6.15;2.50;;;17.40;99.90;;;;;;5011103;28;20045;-64
2021/08/04 04:51:18;;;;;;;6.72;2.80;;;17.50;99.90;;;;;;5011573;28;20037;-64
2021/08/04 04:54:22;;;;;;;4.65;2.38;;;17.50;99.90;;;;;;4991434;28;20499;-63
2021/08/04 04:57:26;;;;;;;8.27;2.63;;;17.40;99.90;;;;;;4995136;28;20405;-64
2021/08/04 05:00:31;;;;;;;9.90;2.65;;;17.40;99.90;;;;;;4994201;28;20049;-64
2021/08/04 05:03:35;;;;;;;5.97;2.50;;;17.40;99.90;;;;;;4991957;28;20513;-64
2021/08/04 05:06:39;;;;;;;23.30;3.00;;;17.40;99.90;;;;;;5006979;28;20393;-63
2021/08/04 05:09:44;;;;;;;6.40;2.60;;;17.40;99.90;;;;;;5010981;28;20507;-64
2021/08/04 05:12:48;;;;;;;6.25;2.58;;;17.50;99.90;;;;;;4991720;28;20061;-63
2021/08/04 05:15:54;;;;;;;5.18;2.20;;;17.70;99.90;;;;;;5008903;28;20053;-64
2021/08/04 05:18:58;;;;;;;7.95;2.20;;;17.90;99.90;;;;;;5009494;28;20053;-63
2021/08/04 05:22:02;;;;;;;13.27;2.45;;;18.10;99.90;;;;;;5010972;28;20045;-64
2021/08/04 05:25:07;;;;;;;8.13;2.10;;;18.50;99.90;;;;;;5011210;28;20037;-64
2021/08/04 05:28:12;;;;;;;6.00;2.33;;;18.70;99.90;;;;;;5009998;28;20041;-64
2021/08/04 05:31:17;;;;;;;4.60;2.17;;;18.80;99.90;;;;;;5011096;28;20049;-64
2021/08/04 05:34:21;;;;;;;4.00;1.95;;;18.90;99.90;;;;;;5007846;28;20041;-64
2021/08/04 05:37:24;;;;;;;5.15;2.53;;;18.80;99.90;;;;;;5007861;28;20040;-65
2021/08/04 05:40:29;;;;;;;8.02;2.28;;;18.80;99.90;;;;;;5007665;28;20045;-63
2021/08/04 05:43:34;;;;;;;6.15;2.10;;;18.90;99.90;;;;;;5001682;28;20057;-64
2021/08/04 05:46:38;;;;;;;7.78;2.50;;;19.00;99.90;;;;;;5003996;28;20408;-64
2021/08/04 05:49:43;;;;;;;5.80;2.22;;;19.30;99.90;;;;;;5009015;28;20037;-64
2021/08/04 05:52:47;;;;;;;5.07;2.03;;;19.50;99.90;;;;;;5005869;28;20045;-64
2021/08/04 05:55:52;;;;;;;4.20;2.38;;;19.60;99.90;;;;;;5004080;28;20045;-64
2021/08/04 05:58:56;;;;;;;6.38;1.90;;;19.90;99.90;;;;;;5003657;28;20056;-64
2021/08/04 06:02:00;;;;;;;3.38;1.83;;;20.10;99.90;;;;;;4999959;28;20044;-63
2021/08/04 06:05:06;;;;;;;7.30;2.15;;;20.40;99.90;;;;;;5007081;28;20040;-65
2021/08/04 06:08:12;;;;;;;4.32;2.13;;;20.20;99.90;;;;;;5004205;28;20044;-63
2021/08/04 06:11:16;;;;;;;6.20;2.10;;;19.90;99.90;;;;;;5008800;28;20208;-64
2021/08/04 06:14:20;;;;;;;6.78;1.88;;;20.40;99.90;;;;;;5008322;28;20044;-64
2021/08/04 06:17:24;;;;;;;5.25;2.20;;;21.00;99.90;;;;;;5005228;28;20516;-64
2021/08/04 06:20:28;;;;;;;4.78;2.13;;;20.60;99.90;;;;;;5000178;28;20122;-64
2021/08/04 06:23:34;;;;;;;2.97;1.75;;;21.10;99.90;;;;;;5007514;28;20049;-64
2021/08/04 06:26:38;;;;;;;4.43;2.08;;;21.70;99.90;;;;;;4999647;28;20045;-64
2021/08/04 06:29:43;;;;;;;4.53;2.10;;;22.20;99.90;;;;;;5009423;28;20045;-64
2021/08/04 06:32:47;;;;;;;2.20;1.65;;;22.80;99.90;;;;;;5008929;28;20048;-64
2021/08/04 06:35:53;;;;;;;4.18;1.92;;;23.50;98.00;;;;;;4998877;28;20401;-63
2021/08/04 06:38:57;;;;;;;3.08;1.80;;;23.40;97.00;;;;;;4995381;28;20040;-64
2021/08/04 06:42:03;;;;;;;2.63;1.40;;;24.00;97.50;;;;;;4996206;28;20037;-64
2021/08/04 06:45:09;;;;;;;5.30;1.90;;;25.30;95.60;;;;;;5007668;28;20431;-64
2021/08/04 06:48:13;;;;;;;5.18;1.58;;;26.00;94.10;;;;;;5005167;28;20396;-64
2021/08/04 06:51:17;;;;;;;4.68;1.80;;;26.80;93.00;;;;;;5001494;28;20049;-64
2021/08/04 06:54:23;;;;;;;2.40;1.27;;;28.00;91.40;;;;;;5006701;28;20388;-64
2021/08/04 06:57:28;;;;;;;4.70;1.60;;;28.40;90.00;;;;;;4994230;28;20492;-64
2021/08/04 07:00:32;;;;;;;2.75;1.20;;;28.60;88.60;;;;;;5001557;28;20046;-64
2021/08/04 07:03:38;;;;;;;1.90;1.38;;;28.70;87.20;;;;;;4997092;28;20105;-64
2021/08/04 07:06:53;;;;;;;4.03;1.50;;;29.20;86.50;;;;;;4998619;28;20388;-64
2021/08/04 07:09:58;;;;;;;2.70;1.50;;;30.50;84.20;;;;;;4998148;28;20057;-64
2021/08/04 07:13:02;;;;;;;2.85;1.42;;;30.70;81.80;;;;;;5009921;28;20053;-64
2021/08/04 07:16:07;;;;;;;6.05;1.58;;;30.10;81.80;;;;;;5009166;28;20048;-63
2021/08/04 07:19:12;;;;;;;3.80;1.70;;;29.60;81.80;;;;;;5007242;28;20069;-64
2021/08/04 07:22:06;;;;;;;2.75;1.38;;;29.20;82.90;;;;;;5057248;28;20455;-54
2021/08/04 07:25:11;;;;;;;4.78;1.70;;;30.40;81.60;;;;;;5058004;28;20045;-56
2021/08/04 07:28:16;;;;;;;7.55;1.30;;;29.40;80.70;;;;;;5062049;28;20045;-56
2021/08/04 07:31:19;;;;;;;3.60;1.50;;;31.70;78.90;;;;;;5038721;28;20399;-53
2021/08/04 07:34:25;;;;;;;2.55;1.10;;;31.90;76.40;;;;;;5039569;28;20487;-53
2021/08/04 07:37:32;;;;;;;5.45;1.27;;;32.10;75.10;;;;;;5031757;28;20041;-51
2021/08/04 07:40:37;;;;;;;3.13;1.15;;;31.00;76.50;;;;;;5043553;28;20033;-50
2021/08/04 07:43:41;;;;;;;2.63;1.20;;;28.90;78.70;;;;;;5044845;28;20029;-56
2021/08/04 07:46:45;;;;;;;6.90;1.83;;;28.20;81.00;;;;;;5031687;28;20479;-55
2021/08/04 07:49:49;;;;;;;9.05;1.70;;;28.10;81.90;;;;;;5043112;28;20111;-53
2021/08/04 07:52:53;;;;;;;5.18;1.75;;;27.90;81.40;;;;;;5041889;28;20033;-52
2021/08/04 07:55:57;;;;;;;4.07;1.40;;;28.70;81.70;;;;;;5034590;28;20033;-52
2021/08/04 07:59:04;;;;;;;3.55;1.70;;;29.80;80.50;;;;;;5044119;28;20503;-57
2021/08/04 08:02:08;;;;;;;3.47;1.55;;;30.70;78.40;;;;;;5041499;28;20033;-56
2021/08/04 08:05:12;;;;;;;3.85;1.40;;;31.20;78.20;;;;;;5039906;28;20033;-56
2021/08/04 08:08:17;;;;;;;3.42;1.15;;;31.70;77.00;;;;;;5046111;28;20037;-50
2021/08/04 08:11:21;;;;;;;3.45;1.33;;;32.60;76.60;;;;;;5045126;28;20041;-50
2021/08/04 08:14:27;;;;;;;2.03;1.38;;;33.80;74.30;;;;;;5043775;28;20037;-51
2021/08/04 08:17:31;;;;;;;6.55;1.52;;;33.00;74.80;;;;;;5026070;28;20042;-56
2021/08/04 08:20:36;;;;;;;6.35;1.50;;;32.10;76.60;;;;;;5025674;28;20042;-54
2021/08/04 08:23:40;;;;;;;7.60;1.40;;;31.90;77.10;;;;;;5033492;28;20037;-56
2021/08/04 08:26:44;;;;;;;9.13;1.65;;;30.80;78.10;;;;;;5043270;28;20038;-53
2021/08/04 08:29:49;;;;;;;3.95;1.50;;;30.10;79.50;;;;;;5035832;28;20033;-55
2021/08/04 08:32:53;;;;;;;7.65;1.90;;;29.10;80.10;;;;;;5029478;28;20041;-54
2021/08/04 08:35:58;;;;;;;8.43;1.90;;;29.00;81.40;;;;;;5028925;28;20029;-55
2021/08/04 08:39:05;;;;;;;7.88;1.92;;;28.80;82.40;;;;;;5032176;28;20508;-53
2021/08/04 08:42:09;;;;;;;7.95;2.33;;;28.30;83.20;;;;;;5029403;28;20037;-56
2021/08/04 08:45:14;;;;;;;4.53;1.67;;;28.70;83.00;;;;;;5029824;28;20408;-57
2021/08/04 08:48:19;;;;;;;7.28;1.80;;;29.30;82.20;;;;;;5030867;28;20033;-55
2021/08/04 08:51:23;;;;;;;3.95;1.65;;;29.80;81.90;;;;;;5029212;28;20046;-52
2021/08/04 08:54:27;;;;;;;3.40;1.38;;;31.10;80.50;;;;;;5026362;28;20531;-50
2021/08/04 08:57:32;;;;;;;9.32;1.80;;;31.60;79.20;;;;;;5031826;28;20038;-51
2021/08/04 09:00:36;;;;;;;3.15;1.73;;;29.70;80.30;;;;;;5030938;28;20042;-54
2021/08/04 09:03:41;;;;;;;3.28;1.60;;;29.00;83.40;;;;;;5024937;28;20034;-54
2021/08/04 09:06:52;;;;;;;6.95;1.70;;;28.80;83.80;;;;;;5029589;28;20033;-56
2021/08/04 09:09:57;;;;;;;5.28;1.73;;;29.20;84.40;;;;;;5028537;28;20496;-54
2021/08/04 09:13:05;;;;;;;4.50;1.85;;;28.50;84.90;;;;;;5027893;28;20381;-53
2021/08/04 09:16:19;;;;;;;9.65;2.33;;;29.70;83.50;;;;;;5024599;28;20046;-53
2021/08/04 09:19:23;;;;;;;3.20;1.45;;;30.20;82.90;;;;;;5011177;28;20037;-53
2021/08/04 09:22:28;;;;;;;5.43;2.15;;;30.40;82.50;;;;;;5029865;28;20034;-50
2021/08/04 09:25:32;;;;;;;6.97;2.05;;;28.70;84.80;;;;;;5023159;28;20033;-50
2021/08/04 09:29:05;;;;;;;6.35;2.50;;;29.10;85.10;;;;;;5030426;28;20384;-55
2021/08/04 09:32:22;;;;;;;8.10;2.25;;;28.80;84.40;;;;;;5011558;28;20041;-50
2021/08/04 09:35:26;;;;;;;14.13;2.42;;;29.30;84.00;;;;;;5024117;28;20050;-48
2021/08/04 09:38:30;;;;;;;6.68;2.20;;;30.40;83.70;;;;;;5020766;28;20415;-48
2021/08/04 09:41:35;;;;;;;9.05;2.10;;;31.30;82.60;;;;;;5028944;28;20494;-51
2021/08/04 09:44:55;;;;;;;9.32;1.73;;;31.50;80.30;;;;;;5028321;28;20042;-52
2021/08/04 09:48:02;;;;;;;8.93;2.25;;;30.30;82.00;;;;;;5027289;28;20025;-49
2021/08/04 09:51:16;;;;;;;3.40;1.65;;;31.50;80.60;;;;;;5027278;28;20033;-49
2021/08/04 09:54:20;;;;;;;3.80;1.60;;;32.10;79.70;;;;;;5027264;28;20380;-48
2021/08/04 09:57:42;;;;;;;4.82;1.75;;;31.70;80.00;;;;;;5027548;28;20037;-48
2021/08/04 10:00:49;;;;;;;8.27;1.80;;;29.90;82.60;;;;;;5022008;28;20058;-50
2021/08/04 10:04:03;;;;;;;5.20;1.42;;;30.80;82.80;;;;;;5010475;28;20037;-51
2021/08/04 10:07:11;;;;;;;4.57;2.13;;;32.10;81.40;;;;;;5028641;28;20034;-52
2021/08/04 10:10:16;;;;;;;7.88;2.17;;;32.80;80.30;;;;;;5028854;28;20091;-51
2021/08/04 10:13:22;;;;;;;12.48;1.90;;;32.60;78.50;;;;;;5012288;28;20408;-52
2021/08/04 10:16:32;;;;;;;8.35;1.73;;;33.00;78.30;;;;;;5012962;28;20040;-49
2021/08/04 10:19:36;;;;;;;5.60;2.57;;;33.70;77.30;;;;;;5010846;28;20038;-49
2021/08/04 10:22:40;;;;;;;3.28;1.60;;;33.50;77.40;;;;;;5029458;28;20291;-50
2021/08/04 10:25:47;;;;;;;4.18;1.90;;;33.20;78.00;;;;;;5028405;28;20030;-48
2021/08/04 10:28:54;;;;;;;7.63;1.70;;;33.90;76.70;;;;;;5019407;28;20038;-48
2021/08/04 10:31:58;;;;;;;5.75;1.67;;;33.70;76.30;;;;;;5029014;28;20045;-49
2021/08/04 10:35:03;;;;;;;4.82;1.60;;;33.10;76.10;;;;;;5016597;28;20037;-51
2021/08/04 10:38:12;;;;;;;3.95;1.73;;;35.30;74.90;;;;;;5013680;28;20044;-48
2021/08/04 10:41:25;;;;;;;7.57;1.90;;;33.80;75.40;;;;;;5009285;28;20053;-54
2021/08/04 10:44:29;;;;;;;3.47;1.92;;;34.20;74.50;;;;;;5029371;28;20041;-51
2021/08/04 10:47:33;;;;;;;3.15;1.58;;;35.80;72.00;;;;;;5023248;28;20040;-51
2021/08/04 10:50:37;;;;;;;2.22;1.30;;;37.70;66.90;;;;;;5023876;28;20041;-53
2021/08/04 10:54:00;;;;;;;2.60;1.38;;;37.10;64.30;;;;;;5029792;28;20529;-49
2021/08/04 10:57:06;;;;;;;3.85;1.40;;;39.50;62.00;;;;;;5029207;28;20518;-52
2021/08/04 11:00:25;;;;;;;3.03;1.40;;;39.60;59.90;;;;;;5025439;28;20054;-49
2021/08/04 11:03:29;;;;;;;1.42;1.00;;;39.40;59.00;;;;;;5029225;28;20052;-50
2021/08/04 11:06:34;;;;;;;2.47;1.45;;;39.20;60.40;;;;;;5029374;28;20048;-55
2021/08/04 11:09:43;;;;;;;2.90;1.52;;;38.70;60.60;;;;;;5027383;28;20036;-48
2021/08/04 11:12:48;;;;;;;3.13;1.42;;;37.10;60.50;;;;;;5010892;28;20052;-54
2021/08/04 11:16:12;;;;;;;2.95;1.45;;;34.80;62.90;;;;;;5023673;28;20522;-53
2021/08/04 11:19:16;;;;;;;3.60;1.90;;;36.10;62.50;;;;;;5027646;28;20049;-53
2021/08/04 11:22:24;;;;;;;6.60;1.60;;;35.40;61.80;;;;;;5027470;28;20052;-51
2021/08/04 11:25:38;;;;;;;4.15;1.70;;;36.10;60.10;;;;;;5028103;28;20511;-54
2021/08/04 11:28:44;;;;;;;2.70;1.50;;;37.20;60.40;;;;;;5028655;28;20034;-52
2021/08/04 11:32:19;;;;;;;3.60;1.60;;;37.30;60.30;;;;;;5025926;28;20048;-53
2021/08/04 11:35:24;;;;;;;3.92;1.50;;;36.00;60.90;;;;;;5011818;28;20053;-52
2021/08/04 11:38:48;;;;;;;6.80;1.55;;;36.80;60.00;;;;;;5025311;28;20053;-57
2021/08/04 11:41:52;;;;;;;8.13;1.67;;;36.50;60.90;;;;;;5028033;28;20089;-51
2021/08/04 11:45:08;;;;;;;5.43;1.75;;;34.60;63.10;;;;;;5023145;28;20467;-51
2021/08/04 11:48:12;;;;;;;2.75;1.70;;;34.20;63.20;;;;;;5025643;28;20053;-48
2021/08/04 11:51:16;;;;;;;4.68;1.50;;;34.00;64.80;;;;;;5015873;28;20498;-51
2021/08/04 11:54:34;;;;;;;3.80;1.88;;;34.40;62.70;;;;;;5014738;28;20302;-48
2021/08/04 11:57:42;;;;;;;4.22;1.77;;;34.10;63.40;;;;;;5027459;28;20048;-50
2021/08/04 12:00:47;;;;;;;6.30;1.67;;;33.60;63.90;;;;;;5024925;28;20522;-52
2021/08/04 12:04:09;;;;;;;3.70;1.58;;;31.70;65.60;;;;;;5018005;28;20041;-49
2021/08/04 12:07:14;;;;;;;5.05;1.80;;;32.60;64.30;;;;;;5022241;28;20041;-48
2021/08/04 12:10:21;;;;;;;5.10;1.65;;;33.20;63.80;;;;;;5013205;28;20037;-48
2021/08/04 12:13:26;;;;;;;2.50;1.50;;;33.40;64.00;;;;;;5026856;28;20039;-53
2021/08/04 12:16:30;;;;;;;6.30;1.95;;;34.20;63.00;;;;;;5030857;28;20054;-48
2021/08/04 12:19:36;;;;;;;2.17;1.15;;;34.40;63.80;;;;;;5027056;28;20026;-48
2021/08/04 12:22:42;;;;;;;3.03;1.55;;;34.60;63.00;;;;;;5027996;28;20554;-50
2021/08/04 12:26:00;;;;;;;3.55;1.60;;;33.40;62.90;;;;;;5026738;28;20041;-51
2021/08/04 12:29:26;;;;;;;2.63;1.55;;;32.10;63.70;;;;;;5025497;28;20037;-50
2021/08/04 12:32:32;;;;;;;2.50;1.42;;;32.40;63.90;;;;;;5028431;28;20048;-51
2021/08/04 12:36:07;;;;;;;4.40;1.40;;;33.50;61.60;;;;;;5017135;28;20049;-53
2021/08/04 12:39:11;;;;;;;4.95;1.75;;;34.60;61.60;;;;;;5018083;28;20284;-48
2021/08/04 12:42:18;;;;;;;2.67;1.73;;;34.80;59.90;;;;;;5021176;28;20050;-52
2021/08/04 12:45:24;;;;;;;2.75;1.50;;;36.10;59.70;;;;;;5014540;28;20045;-50
2021/08/04 12:48:48;;;;;;;4.22;1.63;;;37.80;58.00;;;;;;5014015;28;20033;-50
2021/08/04 12:51:55;;;;;;;4.05;1.40;;;37.90;57.60;;;;;;5014696;28;20046;-50
2021/08/04 12:55:16;;;;;;;4.47;1.60;;;36.80;57.40;;;;;;5013209;28;20046;-51
2021/08/04 12:58:20;;;;;;;3.17;1.67;;;37.20;58.00;;;;;;5012898;28;20038;-54
2021/08/04 13:01:28;;;;;;;4.45;1.63;;;36.90;58.00;;;;;;5018646;28;20530;-55
2021/08/04 13:04:33;;;;;;;8.55;1.75;;;36.50;58.70;;;;;;5021867;28;20371;-52
2021/08/04 13:07:42;;;;;;;3.90;1.65;;;35.30;59.60;;;;;;5017419;28;20041;-48
2021/08/04 13:10:47;;;;;;;5.80;2.10;;;33.60;61.20;;;;;;5020037;28;20034;-51
2021/08/04 13:14:00;;;;;;;6.28;2.28;;;34.50;61.10;;;;;;5018167;28;20045;-50
2021/08/04 13:17:20;;;;;;;4.35;2.20;;;34.90;61.40;;;;;;5027535;28;20119;-52
2021/08/04 13:20:30;;;;;;;;;;;33.20;60.70;;;;;;5029138;28;20044;-55
2021/08/04 13:23:35;;;;;;;4.32;1.98;;;33.80;62.50;;;;;;5024779;28;19919;-50
2021/08/04 13:26:39;;;;;;;3.67;1.83;;;35.10;60.70;;;;;;5027950;28;20034;-52
2021/08/04 13:29:43;;;;;;;4.88;1.67;;;35.30;61.70;;;;;;5027877;28;20040;-50
2021/08/04 13:32:47;;;;;;;3.95;1.50;;;35.50;61.10;;;;;;5027274;28;20046;-51
2021/08/04 13:35:53;;;;;;;4.35;1.70;;;35.40;60.00;;;;;;5020905;28;20041;-49
2021/08/04 13:38:58;;;;;;;3.47;1.70;;;35.90;59.20;;;;;;5012810;28;20069;-54
2021/08/04 13:42:04;;;;;;;3.38;1.65;;;36.40;60.00;;;;;;5016227;28;20416;-51
2021/08/04 13:45:12;;;;;;;6.18;1.88;;;34.80;60.60;;;;;;5012403;28;20049;-53
2021/08/04 13:48:18;;;;;;;6.65;2.15;;;33.30;58.80;;;;;;5011149;28;20041;-50
2021/08/04 13:51:26;;;;;;;3.00;2.03;;;33.40;60.90;;;;;;5013487;28;20041;-51
2021/08/04 13:54:30;;;;;;;6.03;2.22;;;34.00;59.20;;;;;;5015222;28;20514;-53
2021/08/04 13:57:36;;;;;;;4.72;1.70;;;33.60;58.70;;;;;;5013647;28;20041;-51
2021/08/04 14:00:41;;;;;;;4.55;1.52;;;32.50;59.70;;;;;;5011370;28;20363;-49
2021/08/04 14:03:46;;;;;;;3.25;1.67;;;31.80;60.10;;;;;;5023478;28;20403;-49
2021/08/04 14:06:50;;;;;;;5.18;1.45;;;31.80;59.80;;;;;;5013331;28;20029;-55
2021/08/04 14:09:54;;;;;;;5.22;1.92;;;31.50;60.30;;;;;;5009990;28;20504;-53
2021/08/04 14:12:58;;;;;;;4.15;1.77;;;31.90;60.60;;;;;;5018082;28;20057;-52
2021/08/04 14:16:03;;;;;;;5.40;2.15;;;32.30;60.60;;;;;;5010247;28;20049;-51
2021/08/04 14:19:07;;;;;;;5.40;1.95;;;32.40;60.30;;;;;;5009819;28;20045;-53
2021/08/04 14:22:13;;;;;;;4.20;1.50;;;32.00;61.10;;;;;;5014875;28;20064;-55
2021/08/04 14:25:19;;;;;;;4.20;1.75;;;31.70;61.20;;;;;;5012870;28;20041;-54
2021/08/04 14:28:23;;;;;;;4.15;1.70;;;31.60;61.00;;;;;;5010682;28;20037;-50
2021/08/04 14:31:27;;;;;;;5.45;1.85;;;32.20;61.20;;;;;;5011319;28;20053;-50
2021/08/04 14:34:32;;;;;;;5.30;2.10;;;32.50;59.80;;;;;;5014573;28;20702;-51
2021/08/04 14:37:37;;;;;;;8.23;1.60;;;32.20;61.00;;;;;;5011197;28;20044;-52
2021/08/04 14:40:42;;;;;;;5.85;1.95;;;32.20;61.70;;;;;;5011206;28;20034;-53
2021/08/04 14:43:46;;;;;;;3.88;1.80;;;32.50;60.00;;;;;;5011220;28;20511;-50
2021/08/04 14:46:51;;;;;;;9.65;2.25;;;32.20;61.20;;;;;;5025559;28;20033;-52
2021/08/04 14:49:55;;;;;;;6.20;2.00;;;32.30;61.60;;;;;;5018839;28;20048;-51
2021/08/04 14:52:59;;;;;;;7.05;2.30;;;31.80;61.30;;;;;;5015025;28;20048;-51
2021/08/04 14:56:07;;;;;;;8.05;2.45;;;31.30;62.20;;;;;;5011816;28;20045;-54
2021/08/04 14:59:11;;;;;;;4.65;1.80;;;31.00;62.20;;;;;;5011130;28;20041;-51
2021/08/04 15:02:16;;;;;;;6.65;2.40;;;30.90;62.30;;;;;;5017069;28;20045;-52
2021/08/04 15:05:20;;;;;;;7.63;2.65;;;30.90;63.10;;;;;;5025165;28;20030;-55
2021/08/04 15:08:24;;;;;;;5.95;2.10;;;30.90;63.70;;;;;;5024026;28;20048;-52
2021/08/04 15:11:29;;;;;;;10.13;2.20;;;31.00;63.60;;;;;;5017584;28;20040;-52
2021/08/04 15:14:33;;;;;;;7.40;2.13;;;31.40;63.40;;;;;;5020261;28;20053;-49
2021/08/04 15:17:39;;;;;;;5.78;2.13;;;31.30;62.90;;;;;;5021442;28;20045;-49
2021/08/04 15:20:43;;;;;;;6.55;2.05;;;31.40;62.50;;;;;;5024593;28;20044;-53
2021/08/04 15:23:47;;;;;;;11.90;2.28;;;30.90;63.20;;;;;;5010311;28;20046;-51
2021/08/04 15:26:52;;;;;;;6.90;2.22;;;31.30;63.60;;;;;;5028136;28;20045;-52
2021/08/04 15:29:56;;;;;;;5.75;2.17;;;31.40;63.80;;;;;;5020386;28;20062;-52
2021/08/04 15:33:01;;;;;;;4.90;1.90;;;31.80;62.20;;;;;;5022904;28;20515;-53
2021/08/04 15:36:06;;;;;;;4.03;1.85;;;31.60;62.30;;;;;;5029411;28;20407;-52
2021/08/04 15:39:10;;;;;;;6.65;1.98;;;32.00;62.30;;;;;;5026404;28;20538;-51
2021/08/04 15:42:16;;;;;;;5.40;2.05;;;32.00;62.30;;;;;;5029330;28;20045;-56
2021/08/04 15:45:23;;;;;;;6.68;2.70;;;31.50;61.80;;;;;;5032983;28;20380;-55
2021/08/04 15:48:29;;;;;;;4.35;2.13;;;31.40;62.50;;;;;;5012819;28;20037;-49
2021/08/04 15:51:33;;;;;;;6.28;2.22;;;31.40;62.80;;;;;;5020999;28;20050;-52
2021/08/04 15:54:37;;;;;;;5.25;1.73;;;31.40;62.70;;;;;;5030117;28;20038;-49
2021/08/04 15:57:41;;;;;;;4.78;2.42;;;31.70;62.10;;;;;;5019464;28;20044;-56
2021/08/04 16:00:47;;;;;;;7.47;1.90;;;32.00;62.30;;;;;;5020158;28;20041;-52
2021/08/04 16:03:51;;;;;;;5.00;1.88;;;32.30;61.70;;;;;;5012772;28;20408;-51
2021/08/04 16:06:55;;;;;;;6.60;2.00;;;32.00;62.30;;;;;;5012844;28;20048;-51
2021/08/04 16:09:59;;;;;;;6.75;1.70;;;32.00;62.10;;;;;;5029124;28;20037;-49
2021/08/04 16:13:04;;;;;;;6.50;1.88;;;31.90;62.50;;;;;;5031124;28;20412;-54